Flight Track Log - Related Links

Times and Time Zones

All times are in EDT time to prevent confusion due to time zone crossing. See the N518QS flight status page for this flight to view local times or setup timezone preferences in your user account.


Time Position Orientation Groundspeed Altitude Reporting Facility
EDT Latitude Longitude Course Direction KTS MPH feet Rate Location/Type
Sun 07:29:08 AM 61.1667 -150.2667 270° West 250 288 5,900  Level Anchorage Center
Sun 07:30:08 AM 61.1833 -150.4333 282° West 290 334 8,700 2,479 Climbing Anchorage Center
Sun 07:31:09 AM 61.2000 -150.6000 282° West 310 357 10,900 2,132 Climbing Anchorage Center
Sun 07:32:09 AM 61.2000 -150.8000 270° West 360 414 13,000 2,500 Climbing Anchorage Center
Sun 07:33:00 AM 61.2582 -151.5949 278° West  Level FlightAware Approximate
Sun 07:33:09 AM 61.2167 -151.0000 280° West 370 426 15,900  Level Anchorage Center
Sun 07:34:00 AM 61.2667 -151.8651 270° West  Level FlightAware Approximate
Sun 07:34:10 AM 61.2333 -151.2167 279° West 390 449 17,800  Level Anchorage Center
Sun 07:35:10 AM 61.2500 -151.4500 279° West 410 472 19,400 1,700 Climbing Anchorage Center
Sun 07:36:10 AM 61.2667 -151.7000 278° West 430 495 21,200 1,850 Climbing Anchorage Center
Sun 07:37:10 AM 61.2667 -151.9667 270° West 440 506 23,100 1,835 Climbing Anchorage Center
Sun 07:38:11 AM 61.2833 -152.2833 276° West 460 529 24,900 1,736 Climbing Anchorage Center
Sun 07:39:11 AM 61.2833 -152.5500 270° West 470 541 26,600 1,650 Climbing Anchorage Center
Sun 07:40:11 AM 61.2833 -152.8333 270° West 480 552 28,200 1,488 Climbing Anchorage Center
Sun 07:41:12 AM 61.2833 -153.1000 270° West 480 552 29,600 1,537 Climbing Anchorage Center
Sun 07:42:12 AM 61.2833 -153.3833 270° West 490 564 31,300 1,900 Climbing Anchorage Center
Sun 07:43:12 AM 61.2833 -153.6667 270° West 490 564 33,400 1,884 Climbing Anchorage Center
Sun 07:44:13 AM 61.2667 -153.9500 263° West 470 541 35,100 1,438 Climbing Anchorage Center
Sun 07:45:13 AM 61.2667 -154.2167 270° West 470 541 36,300 1,300 Climbing Anchorage Center
Sun 07:46:13 AM 61.2667 -154.4833 270° West 460 529 37,700 1,339 Climbing Anchorage Center
Sun 07:47:14 AM 61.2667 -154.7500 270° West 460 529 39,000 645 Climbing Anchorage Center
Sun 07:48:14 AM 61.2667 -155.0167 270° West 460 529 39,000  Level Anchorage Center
Sun 07:49:15 AM 61.2500 -155.3000 263° West 480 552 39,000  Level Anchorage Center
Sun 07:50:15 AM 61.2500 -155.5667 270° West 470 541 39,000  Level Anchorage Center
Sun 07:51:15 AM 61.2500 -155.8333 270° West 480 552 39,000  Level Anchorage Center
Sun 07:52:16 AM 61.2333 -156.1667 264° West 470 541 39,000  Level Anchorage Center
Sun 07:53:16 AM 61.2500 -156.4333 278° West 480 552 39,000  Level Anchorage Center
Sun 07:54:16 AM 61.2500 -156.7000 270° West 470 541 39,000  Level Anchorage Center
Sun 07:55:17 AM 61.2500 -156.9833 270° West 470 541 39,000  Level Anchorage Center
Sun 07:56:17 AM 61.2500 -157.2500 270° West 470 541 39,000  Level Anchorage Center
Sun 07:57:17 AM 61.2500 -157.5167 270° West 470 541 39,000  Level Anchorage Center
Sun 07:58:18 AM 61.2500 -157.7833 270° West 460 529 39,000  Level Anchorage Center
Sun 07:59:18 AM 61.2333 -158.0500 263° West 460 529 39,000  Level Anchorage Center
Sun 08:00:19 AM 61.2333 -158.3167 270° West 460 529 39,000  Level Anchorage Center
Sun 08:01:19 AM 61.2333 -158.6000 270° West 460 529 39,000  Level Anchorage Center
Sun 08:02:19 AM 61.2333 -158.8667 270° West 460 529 39,000  Level Anchorage Center
Sun 08:03:20 AM 61.2333 -159.1500 270° West 470 541 39,000  Level Anchorage Center
Sun 08:04:20 AM 61.2167 -159.4000 262° West 460 529 39,000  Level Anchorage Center
Sun 08:05:20 AM 61.2167 -159.6667 270° West 460 529 39,000  Level Anchorage Center
Sun 08:06:21 AM 61.2167 -159.9333 270° West 450 518 39,000  Level Anchorage Center
Sun 08:07:21 AM 61.2000 -160.2000 263° West 460 529 39,000  Level Anchorage Center
Sun 08:08:21 AM 61.2000 -160.4667 270° West 460 529 39,000  Level Anchorage Center
Sun 08:09:22 AM 61.1833 -160.7167 262° West 440 506 39,000  Level Anchorage Center
Sun 08:10:22 AM 61.1833 -160.9833 270° West 440 506 39,000  Level Anchorage Center
Sun 08:11:23 AM 61.1833 -161.2333 270° West 450 518 39,000  Level Anchorage Center
Sun 08:12:23 AM 61.1667 -161.5167 263° West 470 541 39,000  Level Anchorage Center
Sun 08:13:23 AM 61.1500 -161.7667 262° West 460 529 39,000  Level Anchorage Center
Sun 08:14:24 AM 61.1500 -162.0333 270° West 450 518 39,000  Level Anchorage Center
Sun 08:15:24 AM 61.1333 -162.3000 263° West 460 529 39,000  Level Anchorage Center
Sun 08:16:24 AM 61.1333 -162.5667 270° West 470 541 39,000  Level Anchorage Center
Sun 08:17:25 AM 61.1167 -162.8333 263° West 450 518 39,000  Level Anchorage Center
Sun 08:18:25 AM 61.1000 -163.1000 263° West 450 518 39,000  Level Anchorage Center
Sun 08:19:25 AM 61.0500 -163.3500 248° West 460 529 39,000  Level Anchorage Center
Sun 08:20:26 AM 61.0167 -163.6167 256° West 470 541 39,000  Level Anchorage Center
Sun 08:21:26 AM 60.9833 -163.8667 255° West 460 529 39,000  Level Anchorage Center
Sun 08:22:26 AM 60.9500 -164.1333 256° West 460 529 39,000  Level Anchorage Center
Sun 08:23:27 AM 60.9000 -164.3833 248° West 460 529 39,000  Level Anchorage Center
Sun 08:24:27 AM 60.8667 -164.6333 255° West 450 518 39,000  Level Anchorage Center
Sun 08:25:28 AM 60.8333 -164.8833 255° West 450 518 39,000  Level Anchorage Center
Sun 08:26:28 AM 60.8167 -165.1333 262° West 460 529 39,000  Level Anchorage Center
Sun 08:27:11 AM 60.8167 -165.3500 270° West 460 529 39,000  Level Anchorage Center
Sun 08:28:11 AM 60.8000 -165.6167 263° West 460 529 39,000  Level Anchorage Center
Sun 08:29:11 AM 60.8000 -165.8833 270° West 460 529 39,000  Level Anchorage Center
Sun 08:30:11 AM 60.8000 -166.1500 270° West 460 529 39,000  Level Anchorage Center
Sun 08:31:11 AM 60.8000 -166.4167 270° West 460 529 39,000  Level Anchorage Center
Sun 08:32:10 AM 60.7833 -166.6833 263° West 470 541 39,000 50 Level Anchorage Center
Sun 08:33:11 AM 60.7833 -166.9667 270° West 470 541 39,100 149 Climbing Anchorage Center
Sun 08:34:11 AM 60.7833 -167.2333 270° West 470 541 39,300 200 Climbing Anchorage Center
Sun 08:35:11 AM 60.7667 -167.5000 263° West 470 541 39,500 200 Climbing Anchorage Center
Sun 08:36:11 AM 60.7667 -167.7667 270° West 470 541 39,700 250 Climbing Anchorage Center
Sun 08:37:11 AM 60.7500 -168.0167 262° West 460 529 40,000 150 Climbing Anchorage Center
Sun 08:38:11 AM 60.7500 -168.2833 270° West 450 518 40,000  Level Anchorage Center
Sun 08:39:11 AM 60.7333 -168.5500 263° West 450 518 40,000  Level Anchorage Center
Sun 08:40:11 AM 60.7333 -168.8000 270° West 450 518 40,000  Level Anchorage Center
Sun 08:41:11 AM 60.7167 -169.0667 263° West 460 529 40,000  Level Anchorage Center
Sun 08:42:12 AM 60.7167 -169.3333 270° West 460 529 40,000  Level Anchorage Center
Sun 08:43:11 AM 60.7000 -169.5833 262° West 460 529 40,000  Level Anchorage Center
Sun 08:44:11 AM 60.6833 -169.8500 263° West 460 529 40,000  Level Anchorage Center
Sun 08:45:12 AM 60.6667 -170.1167 263° West 460 529 40,000  Level Anchorage Center
Sun 08:46:11 AM 60.6667 -170.3667 270° West 460 529 40,000  Level Anchorage Center
Sun 08:47:12 AM 60.6500 -170.6333 263° West 460 529 40,000  Level Anchorage Center
Sun 08:48:11 AM 60.6333 -170.9000 263° West 470 541 40,000  Level Anchorage Center
Sun 08:49:12 AM 60.6333 -171.1000 270° West 460 529 40,000  Level Anchorage Center
Sun 08:50:12 AM 60.6167 -171.4167 264° West 460 529 40,000  Level Anchorage Center
Sun 08:51:12 AM 60.6000 -171.6333 261° West 470 541 40,000  Level Anchorage Center
Sun 08:52:12 AM 60.5833 -171.9000 263° West 460 529 40,000  Level Anchorage Center
Sun 08:53:12 AM 60.5667 -172.2167 264° West 470 541 40,000  Level Anchorage Center
Sun 08:54:12 AM 60.5500 -172.4333 261° West 460 529 40,000  Level Anchorage Center
Sun 08:55:12 AM 60.5500 -172.6833 270° West 460 529 40,000  Level Anchorage Center
Sun 08:56:12 AM 60.5333 -172.9500 263° West 460 529 40,000  Level Anchorage Center
Sun 08:57:12 AM 60.5167 -173.2000 262° West 460 529 40,000  Level Anchorage Center
Sun 08:58:12 AM 60.5000 -173.5333 264° West 470 541 40,000  Level Anchorage Center
Sun 08:59:12 AM 60.4833 -173.7833 262° West 460 529 40,000  Level Anchorage Center
Sun 09:00:12 AM 60.4667 -174.0500 263° West 460 529 40,000  Level Anchorage Center
Sun 09:01:12 AM 60.4500 -174.3167 263° West 470 541 40,000  Level Anchorage Center
Sun 09:02:13 AM 60.4500 -174.5667 270° West 460 529 40,000  Level Anchorage Center
Sun 09:03:12 AM 60.4333 -174.7833 261° West 470 541 40,000  Level Anchorage Center
Sun 09:04:13 AM 60.4000 -175.1000 258° West 480 552 40,000  Level Anchorage Center
Sun 09:05:13 AM 60.3833 -175.3167 261° West 470 541 40,000  Level Anchorage Center
Sun 09:07:00 AM 60.3517 -175.7705 262° West  Level FlightAware Approximate
Sun 09:14:00 AM 60.2129 -177.5429 262° West  Level FlightAware Approximate
Sun 09:15:00 AM 60.1911 -177.7948 260° West  Level FlightAware Approximate
Sun 09:16:00 AM 60.1597 -178.0420 253° West  Level FlightAware Approximate
Sun 09:17:00 AM 60.1228 -178.2863 253° West  Level FlightAware Approximate
Sun 09:18:00 AM 60.0856 -178.5300 253° West  Level FlightAware Approximate
Sun 09:19:00 AM 60.0478 -178.7732 253° West  Level FlightAware Approximate
Sun 09:20:00 AM 60.0097 -179.0158 253° West  Level FlightAware Approximate
Sun 09:21:00 AM 59.9710 -179.2579 252° West  Level FlightAware Approximate
Sun 09:22:00 AM 59.9320 -179.4993 252° West  Level FlightAware Approximate
Sun 09:23:00 AM 59.8925 -179.7402 252° West  Level FlightAware Approximate
Sun 09:24:00 AM 59.8525 -179.9806 252° West  Level FlightAware Approximate
Sun 09:25:00 AM 59.8122 179.7796 252° West  Level FlightAware Approximate
Sun 09:26:00 AM 59.7713 179.5405 251° West  Level FlightAware Approximate
Sun 09:27:00 AM 59.7291 179.3026 250° West  Level FlightAware Approximate
Sun 09:28:00 AM 59.6855 179.0660 250° West  Level FlightAware Approximate
Sun 09:29:00 AM 59.6413 178.8300 250° West  Level FlightAware Approximate
Sun 09:30:00 AM 59.5968 178.5945 250° West  Level FlightAware Approximate
Sun 09:31:00 AM 59.5518 178.3596 249° West  Level FlightAware Approximate
Sun 09:32:00 AM 59.5064 178.1254 249° West  Level FlightAware Approximate
Sun 09:33:00 AM 59.4606 177.8917 249° West  Level FlightAware Approximate
Sun 09:34:00 AM 59.4143 177.6587 249° West  Level FlightAware Approximate
Sun 09:35:00 AM 59.3677 177.4264 249° West  Level FlightAware Approximate
Sun 09:36:00 AM 59.3206 177.1947 248° West  Level FlightAware Approximate
Sun 09:37:00 AM 59.2732 176.9636 248° West  Level FlightAware Approximate
Sun 09:38:00 AM 59.2253 176.7331 248° West  Level FlightAware Approximate
Sun 09:39:00 AM 59.1772 176.5033 248° West  Level FlightAware Approximate
Sun 09:40:00 AM 59.1296 176.2732 248° West  Level FlightAware Approximate
Sun 09:41:00 AM 59.0817 176.0438 248° West  Level FlightAware Approximate
Sun 09:42:00 AM 59.0333 175.8150 248° West  Level FlightAware Approximate
Sun 09:43:00 AM 58.9846 175.5869 248° West  Level FlightAware Approximate
Sun 09:44:00 AM 58.9354 175.3594 247° West  Level FlightAware Approximate
Sun 09:45:00 AM 58.8859 175.1326 247° West  Level FlightAware Approximate
Sun 09:46:00 AM 58.8359 174.9064 247° West  Level FlightAware Approximate
Sun 09:47:00 AM 58.7856 174.6809 247° West  Level FlightAware Approximate
Sun 09:48:00 AM 58.7349 174.4560 247° West  Level FlightAware Approximate
Sun 09:49:00 AM 58.6838 174.2318 246° West  Level FlightAware Approximate
Sun 09:50:00 AM 58.6322 174.0083 246° West  Level FlightAware Approximate
Sun 09:51:00 AM 58.5803 173.7854 246° West  Level FlightAware Approximate
Sun 09:52:00 AM 58.5281 173.5631 246° West  Level FlightAware Approximate
Sun 09:53:00 AM 58.4754 173.3416 246° West  Level FlightAware Approximate
Sun 09:54:00 AM 58.4224 173.1207 245° Southwest  Level FlightAware Approximate
Sun 09:55:00 AM 58.3689 172.9005 245° Southwest  Level FlightAware Approximate
Sun 09:56:00 AM 58.3151 172.6809 245° Southwest  Level FlightAware Approximate
Sun 09:57:00 AM 58.2610 172.4620 245° Southwest  Level FlightAware Approximate
Sun 09:58:00 AM 58.2064 172.2438 245° Southwest  Level FlightAware Approximate
Sun 09:59:00 AM 58.1515 172.0262 245° Southwest  Level FlightAware Approximate
Sun 10:00:00 AM 58.0962 171.8094 244° Southwest  Level FlightAware Approximate
Sun 10:01:00 AM 58.0405 171.5932 244° Southwest  Level FlightAware Approximate
Sun 10:02:00 AM 57.9845 171.3776 244° Southwest  Level FlightAware Approximate
Sun 10:03:00 AM 57.9281 171.1628 244° Southwest  Level FlightAware Approximate
Sun 10:04:00 AM 57.8714 170.9486 244° Southwest  Level FlightAware Approximate
Sun 10:05:00 AM 57.8143 170.7351 243° Southwest  Level FlightAware Approximate
Sun 10:06:00 AM 57.7568 170.5222 243° Southwest  Level FlightAware Approximate
Sun 10:07:00 AM 57.6990 170.3101 243° Southwest  Level FlightAware Approximate
Sun 10:08:00 AM 57.6408 170.0986 243° Southwest  Level FlightAware Approximate
Sun 10:09:00 AM 57.5823 169.8878 243° Southwest  Level FlightAware Approximate
Sun 10:10:00 AM 57.5234 169.6777 243° Southwest  Level FlightAware Approximate
Sun 10:11:00 AM 57.4642 169.4683 242° Southwest  Level FlightAware Approximate
Sun 10:12:00 AM 57.4047 169.2596 242° Southwest  Level FlightAware Approximate
Sun 10:13:00 AM 57.3447 169.0515 242° Southwest  Level FlightAware Approximate
Sun 10:14:00 AM 57.2845 168.8441 242° Southwest  Level FlightAware Approximate
Sun 10:15:00 AM 57.2239 168.6374 242° Southwest  Level FlightAware Approximate
Sun 10:16:00 AM 57.1633 168.4310 242° Southwest  Level FlightAware Approximate
Sun 10:17:00 AM 57.1031 168.2246 242° Southwest  Level FlightAware Approximate
Sun 10:18:00 AM 57.0425 168.0188 242° Southwest  Level FlightAware Approximate
Sun 10:19:00 AM 56.9816 167.8138 241° Southwest  Level FlightAware Approximate
Sun 10:20:00 AM 56.9204 167.6094 241° Southwest  Level FlightAware Approximate
Sun 10:21:00 AM 56.8588 167.4057 241° Southwest  Level FlightAware Approximate
Sun 10:22:00 AM 56.7969 167.2027 241° Southwest  Level FlightAware Approximate
Sun 10:23:00 AM 56.7341 167.0009 239° Southwest  Level FlightAware Approximate
Sun 10:24:00 AM 56.6692 166.8017 239° Southwest  Level FlightAware Approximate
Sun 10:25:00 AM 56.6040 166.6031 239° Southwest  Level FlightAware Approximate
Sun 10:26:00 AM 56.5385 166.4053 239° Southwest  Level FlightAware Approximate
Sun 10:27:00 AM 56.4726 166.2081 239° Southwest  Level FlightAware Approximate
Sun 10:28:00 AM 56.4065 166.0116 239° Southwest  Level FlightAware Approximate
Sun 10:29:00 AM 56.3400 165.8158 239° Southwest  Level FlightAware Approximate
Sun 10:30:00 AM 56.2734 165.6205 239° Southwest  Level FlightAware Approximate
Sun 10:31:00 AM 56.2073 165.4250 239° Southwest  Level FlightAware Approximate
Sun 10:32:00 AM 56.1409 165.2301 239° Southwest  Level FlightAware Approximate
Sun 10:33:00 AM 56.0742 165.0360 238° Southwest  Level FlightAware Approximate
Sun 10:34:00 AM 56.0072 164.8425 238° Southwest  Level FlightAware Approximate
Sun 10:35:00 AM 55.9399 164.6496 238° Southwest  Level FlightAware Approximate
Sun 10:36:00 AM 55.8723 164.4575 238° Southwest  Level FlightAware Approximate
Sun 10:37:00 AM 55.8044 164.2660 238° Southwest  Level FlightAware Approximate
Sun 10:38:00 AM 55.7361 164.0752 238° Southwest  Level FlightAware Approximate
Sun 10:39:00 AM 55.6676 163.8850 237° Southwest  Level FlightAware Approximate
Sun 10:40:00 AM 55.5989 163.6956 237° Southwest  Level FlightAware Approximate
Sun 10:41:00 AM 55.5298 163.5067 237° Southwest  Level FlightAware Approximate
Sun 10:42:00 AM 55.4604 163.3186 237° Southwest  Level FlightAware Approximate
Sun 10:43:00 AM 55.3907 163.1311 237° Southwest  Level FlightAware Approximate
Sun 10:44:00 AM 55.3208 162.9442 237° Southwest  Level FlightAware Approximate
Sun 10:45:00 AM 55.2559 162.7522 240° Southwest  Level FlightAware Approximate
Sun 10:46:00 AM 55.1911 162.5603 239° Southwest  Level FlightAware Approximate
Sun 10:47:00 AM 55.1260 162.3691 239° Southwest  Level FlightAware Approximate
Sun 10:48:00 AM 55.0606 162.1785 239° Southwest  Level FlightAware Approximate
Sun 10:49:00 AM 54.9949 161.9885 239° Southwest  Level FlightAware Approximate
Sun 10:50:00 AM 54.9288 161.7992 239° Southwest  Level FlightAware Approximate
Sun 10:51:00 AM 54.8625 161.6105 239° Southwest  Level FlightAware Approximate
Sun 10:52:00 AM 54.7960 161.4224 239° Southwest  Level FlightAware Approximate
Sun 10:53:00 AM 54.7291 161.2349 238° Southwest  Level FlightAware Approximate
Sun 10:54:00 AM 54.6619 161.0480 238° Southwest  Level FlightAware Approximate
Sun 10:55:00 AM 54.5944 160.8618 238° Southwest  Level FlightAware Approximate
Sun 10:56:00 AM 54.5267 160.6762 238° Southwest  Level FlightAware Approximate
Sun 10:57:00 AM 54.4587 160.4912 238° Southwest  Level FlightAware Approximate
Sun 10:58:00 AM 54.3904 160.3068 238° Southwest  Level FlightAware Approximate
Sun 10:59:00 AM 54.3218 160.1230 237° Southwest  Level FlightAware Approximate
Sun 11:00:00 AM 54.2529 159.9398 237° Southwest  Level FlightAware Approximate
Sun 11:01:00 AM 54.1840 159.7570 237° Southwest  Level FlightAware Approximate
Sun 11:02:00 AM 54.1154 159.5742 237° Southwest  Level FlightAware Approximate
Sun 11:03:00 AM 54.0465 159.3919 237° Southwest  Level FlightAware Approximate
Sun 11:04:00 AM 53.9774 159.2103 237° Southwest  Level FlightAware Approximate
Sun 11:05:00 AM 53.9080 159.0292 237° Southwest  Level FlightAware Approximate
Sun 11:06:00 AM 53.8383 158.8487 237° Southwest  Level FlightAware Approximate
Sun 11:07:00 AM 53.7685 158.6688 237° Southwest  Level FlightAware Approximate
Sun 11:08:00 AM 53.6984 158.4893 237° Southwest  Level FlightAware Approximate
Sun 11:09:00 AM 53.6281 158.3105 237° Southwest  Level FlightAware Approximate
Sun 11:10:00 AM 53.5575 158.1323 236° Southwest  Level FlightAware Approximate
Sun 11:11:00 AM 53.4867 157.9546 236° Southwest  Level FlightAware Approximate
Sun 11:12:00 AM 53.4156 157.7776 236° Southwest  Level FlightAware Approximate
Sun 11:13:00 AM 53.3442 157.6011 236° Southwest  Level FlightAware Approximate
Sun 11:14:00 AM 53.2733 157.4244 236° Southwest  Level FlightAware Approximate
Sun 11:15:00 AM 53.2025 157.2479 236° Southwest  Level FlightAware Approximate
Sun 11:16:00 AM 53.1314 157.0719 236° Southwest  Level FlightAware Approximate
Sun 11:17:00 AM 53.0602 156.8965 236° Southwest  Level FlightAware Approximate
Sun 11:18:00 AM 52.9886 156.7217 236° Southwest  Level FlightAware Approximate
Sun 11:19:00 AM 52.9168 156.5475 236° Southwest  Level FlightAware Approximate
Sun 11:20:00 AM 52.8447 156.3739 236° Southwest  Level FlightAware Approximate
Sun 11:21:00 AM 52.7692 156.2048 231° Southwest  Level FlightAware Approximate
Sun 11:22:00 AM 52.6884 156.0427 231° Southwest  Level FlightAware Approximate
Sun 11:23:00 AM 52.6072 155.8814 230° Southwest  Level FlightAware Approximate
Sun 11:24:00 AM 52.5253 155.7213 230° Southwest  Level FlightAware Approximate
Sun 11:25:00 AM 52.4432 155.5617 230° Southwest  Level FlightAware Approximate
Sun 11:26:00 AM 52.3609 155.4028 230° Southwest  Level FlightAware Approximate
Sun 11:27:00 AM 52.2784 155.2445 230° Southwest  Level FlightAware Approximate
Sun 11:28:00 AM 52.1957 155.0867 229° Southwest  Level FlightAware Approximate
Sun 11:29:00 AM 52.1124 154.9301 229° Southwest  Level FlightAware Approximate
Sun 11:30:00 AM 52.0284 154.7748 229° Southwest  Level FlightAware Approximate
Sun 11:31:00 AM 51.9442 154.6200 229° Southwest  Level FlightAware Approximate
Sun 11:32:00 AM 51.8598 154.4659 228° Southwest  Level FlightAware Approximate
Sun 11:33:00 AM 51.7752 154.3123 228° Southwest  Level FlightAware Approximate
Sun 11:34:00 AM 51.6903 154.1592 228° Southwest  Level FlightAware Approximate
Sun 11:35:00 AM 51.6052 154.0070 228° Southwest  Level FlightAware Approximate
Sun 11:36:00 AM 51.5198 153.8554 228° Southwest  Level FlightAware Approximate
Sun 11:37:00 AM 51.4342 153.7043 228° Southwest  Level FlightAware Approximate
Sun 11:38:00 AM 51.3485 153.5538 228° Southwest  Level FlightAware Approximate
Sun 11:39:00 AM 51.2625 153.4039 228° Southwest  Level FlightAware Approximate
Sun 11:40:00 AM 51.1764 153.2545 228° Southwest  Level FlightAware Approximate
Sun 11:41:00 AM 51.0907 153.1048 228° Southwest  Level FlightAware Approximate
Sun 11:42:00 AM 51.0047 152.9557 228° Southwest  Level FlightAware Approximate
Sun 11:43:00 AM 50.9186 152.8071 227° Southwest  Level FlightAware Approximate
Sun 11:44:00 AM 50.8323 152.6590 227° Southwest  Level FlightAware Approximate
Sun 11:45:00 AM 50.7459 152.5115 227° Southwest  Level FlightAware Approximate
Sun 11:46:00 AM 50.6592 152.3646 227° Southwest  Level FlightAware Approximate
Sun 11:47:00 AM 50.5723 152.2182 227° Southwest  Level FlightAware Approximate
Sun 11:48:00 AM 50.4853 152.0723 227° Southwest  Level FlightAware Approximate
Sun 11:49:00 AM 50.3981 151.9270 227° Southwest  Level FlightAware Approximate
Sun 11:50:00 AM 50.3107 151.7822 227° Southwest  Level FlightAware Approximate
Sun 11:51:00 AM 50.2231 151.6379 227° Southwest  Level FlightAware Approximate
Sun 11:52:00 AM 50.1350 151.4946 226° Southwest  Level FlightAware Approximate
Sun 11:53:00 AM 50.0467 151.3521 226° Southwest  Level FlightAware Approximate
Sun 11:54:00 AM 49.9581 151.2100 226° Southwest  Level FlightAware Approximate
Sun 11:55:00 AM 49.8694 151.0685 226° Southwest  Level FlightAware Approximate
Sun 11:56:00 AM 49.7805 150.9275 226° Southwest  Level FlightAware Approximate
Sun 11:57:00 AM 49.6915 150.7870 226° Southwest  Level FlightAware Approximate
Sun 11:58:00 AM 49.6023 150.6470 226° Southwest  Level FlightAware Approximate
Sun 11:59:00 AM 49.5129 150.5076 225° Southwest  Level FlightAware Approximate
Sun 12:00:00 PM 49.4233 150.3686 225° Southwest  Level FlightAware Approximate
Sun 12:01:00 PM 49.3336 150.2302 225° Southwest  Level FlightAware Approximate
Sun 12:02:00 PM 49.2437 150.0923 225° Southwest  Level FlightAware Approximate
Sun 12:03:00 PM 49.1539 149.9546 225° Southwest  Level FlightAware Approximate
Sun 12:04:00 PM 49.0642 149.8168 225° Southwest  Level FlightAware Approximate
Sun 12:05:00 PM 48.9743 149.6796 225° Southwest  Level FlightAware Approximate
Sun 12:06:00 PM 48.8843 149.5428 225° Southwest  Level FlightAware Approximate
Sun 12:07:00 PM 48.7941 149.4066 225° Southwest  Level FlightAware Approximate
Sun 12:08:00 PM 48.7038 149.2708 225° Southwest  Level FlightAware Approximate
Sun 12:09:00 PM 48.6133 149.1355 225° Southwest  Level FlightAware Approximate
Sun 12:10:00 PM 48.5227 149.0007 225° Southwest  Level FlightAware Approximate
Sun 12:11:00 PM 48.4319 148.8664 224° Southwest  Level FlightAware Approximate
Sun 12:12:00 PM 48.3409 148.7326 224° Southwest  Level FlightAware Approximate
Sun 12:13:00 PM 48.2498 148.5992 224° Southwest  Level FlightAware Approximate
Sun 12:14:00 PM 48.1585 148.4663 224° Southwest  Level FlightAware Approximate
Sun 12:15:00 PM 48.0671 148.3339 224° Southwest  Level FlightAware Approximate
Sun 12:16:00 PM 47.9748 148.2031 224° Southwest  Level FlightAware Approximate
Sun 12:17:00 PM 47.8823 148.0728 223° Southwest  Level FlightAware Approximate
Sun 12:18:00 PM 47.7897 147.9429 223° Southwest  Level FlightAware Approximate
Sun 12:19:00 PM 47.6970 147.8135 223° Southwest  Level FlightAware Approximate
Sun 12:20:00 PM 47.6041 147.6845 223° Southwest  Level FlightAware Approximate
Sun 12:21:00 PM 47.5111 147.5560 223° Southwest  Level FlightAware Approximate
Sun 12:22:00 PM 47.4179 147.4280 223° Southwest  Level FlightAware Approximate
Sun 12:23:00 PM 47.3246 147.3004 223° Southwest  Level FlightAware Approximate
Sun 12:24:00 PM 47.2312 147.1732 223° Southwest  Level FlightAware Approximate
Sun 12:25:00 PM 47.1376 147.0465 223° Southwest  Level FlightAware Approximate
Sun 12:26:00 PM 47.0438 146.9203 223° Southwest  Level FlightAware Approximate
Sun 12:27:00 PM 46.9500 146.7945 222° Southwest  Level FlightAware Approximate
Sun 12:28:00 PM 46.8563 146.6686 223° Southwest  Level FlightAware Approximate
Sun 12:29:00 PM 46.7626 146.5430 223° Southwest  Level FlightAware Approximate
Sun 12:30:00 PM 46.6688 146.4177 223° Southwest  Level FlightAware Approximate
Sun 12:31:00 PM 46.5748 146.2929 222° Southwest  Level FlightAware Approximate
Sun 12:32:00 PM 46.4808 146.1685 222° Southwest  Level FlightAware Approximate
Sun 12:33:00 PM 46.3865 146.0446 222° Southwest  Level FlightAware Approximate
Sun 12:34:00 PM 46.2922 145.9211 222° Southwest  Level FlightAware Approximate
Sun 12:35:00 PM 46.1977 145.7980 222° Southwest  Level FlightAware Approximate
Sun 12:36:00 PM 46.1031 145.6753 222° Southwest  Level FlightAware Approximate
Sun 12:37:00 PM 46.0084 145.5530 222° Southwest  Level FlightAware Approximate
Sun 12:38:00 PM 45.9135 145.4312 222° Southwest  Level FlightAware Approximate
Sun 12:39:00 PM 45.8185 145.3098 222° Southwest  Level FlightAware Approximate
Sun 12:40:00 PM 45.7234 145.1888 222° Southwest  Level FlightAware Approximate
Sun 12:41:00 PM 45.6281 145.0682 222° Southwest  Level FlightAware Approximate
Sun 12:42:00 PM 45.5327 144.9480 221° Southwest  Level FlightAware Approximate
Sun 12:43:00 PM 45.4372 144.8282 221° Southwest  Level FlightAware Approximate
Sun 12:44:00 PM 45.3415 144.7089 221° Southwest  Level FlightAware Approximate
Sun 12:45:00 PM 45.2458 144.5899 221° Southwest  Level FlightAware Approximate
Sun 12:46:00 PM 45.1499 144.4713 221° Southwest  Level FlightAware Approximate
Sun 12:47:00 PM 45.0539 144.3532 221° Southwest  Level FlightAware Approximate
Sun 12:48:00 PM 44.9586 144.2341 223° Southwest  Level FlightAware Approximate
Sun 12:49:00 PM 44.8653 144.1120 223° Southwest  Level FlightAware Approximate
Sun 12:50:00 PM 44.7720 143.9903 223° Southwest  Level FlightAware Approximate
Sun 12:51:00 PM 44.6785 143.8689 223° Southwest  Level FlightAware Approximate
Sun 12:52:00 PM 44.5849 143.7480 223° Southwest  Level FlightAware Approximate
Sun 12:53:00 PM 44.4911 143.6274 223° Southwest  Level FlightAware Approximate
Sun 12:54:00 PM 44.3972 143.5072 222° Southwest  Level FlightAware Approximate
Sun 12:55:00 PM 44.3032 143.3874 222° Southwest  Level FlightAware Approximate
Sun 12:56:00 PM 44.2038 143.2767 218° Southwest  Level FlightAware Approximate
Sun 12:57:00 PM 44.1041 143.1667 218° Southwest  Level FlightAware Approximate
Sun 12:58:00 PM 44.0043 143.0570 218° Southwest  Level FlightAware Approximate
Sun 12:59:00 PM 43.9044 142.9477 218° Southwest  Level FlightAware Approximate
Sun 01:00:00 PM 43.8043 142.8388 218° Southwest  Level FlightAware Approximate
Sun 01:01:00 PM 43.7042 142.7303 218° Southwest  Level FlightAware Approximate
Sun 01:02:00 PM 43.6040 142.6221 218° Southwest  Level FlightAware Approximate
Sun 01:03:00 PM 43.5037 142.5142 218° Southwest  Level FlightAware Approximate
Sun 01:04:00 PM 43.4032 142.4068 218° Southwest  Level FlightAware Approximate
Sun 01:05:00 PM 43.3018 142.3012 216° Southwest  Level FlightAware Approximate
Sun 01:06:00 PM 43.1994 142.1978 216° Southwest  Level FlightAware Approximate
Sun 01:07:00 PM 43.0968 142.0947 216° Southwest  Level FlightAware Approximate
Sun 01:08:00 PM 42.9942 141.9919 216° Southwest  Level FlightAware Approximate
Sun 01:09:00 PM 42.8915 141.8895 216° Southwest  Level FlightAware Approximate
Sun 01:10:00 PM 42.7886 141.7874 216° Southwest  Level FlightAware Approximate
Sun 01:11:00 PM 42.6857 141.6857 216° Southwest  Level FlightAware Approximate
Sun 01:12:00 PM 42.5835 141.5829 217° Southwest  Level FlightAware Approximate
Sun 01:13:00 PM 42.4811 141.4805 216° Southwest  Level FlightAware Approximate
Sun 01:14:00 PM 42.3787 141.3783 216° Southwest  Level FlightAware Approximate
Sun 01:15:00 PM 42.2746 141.2797 213° Southwest  Level FlightAware Approximate
Sun 01:16:00 PM 42.1679 141.1862 213° Southwest  Level FlightAware Approximate
Sun 01:17:00 PM 42.0611 141.0930 213° Southwest  Level FlightAware Approximate
Sun 01:18:00 PM 41.9572 140.9943 215° Southwest  Level FlightAware Approximate
Sun 01:19:00 PM 41.8528 140.8968 215° Southwest  Level FlightAware Approximate
Sun 01:20:00 PM 41.7519 140.7942 229° Southwest  Level FlightAware Approximate
Sun 01:21:00 PM 41.6680 140.6662 229° Southwest  Level FlightAware Approximate
Sun 01:22:00 PM 41.5839 140.5386 229° Southwest  Level FlightAware Approximate
Sun 01:23:00 PM 41.4996 140.4113 229° Southwest  Level FlightAware Approximate
Sun 01:24:00 PM 41.4152 140.2843 228° Southwest  Level FlightAware Approximate
Sun 01:25:00 PM 41.3307 140.1577 228° Southwest  Level FlightAware Approximate
Sun 01:26:00 PM 41.2461 140.0314 228° Southwest  Level FlightAware Approximate
Sun 01:27:00 PM 41.1613 139.9054 228° Southwest  Level FlightAware Approximate
Sun 01:28:00 PM 41.0763 139.7798 228° Southwest  Level FlightAware Approximate
Sun 01:29:00 PM 40.9913 139.6545 228° Southwest  Level FlightAware Approximate
Sun 01:30:00 PM 40.9061 139.5295 228° Southwest  Level FlightAware Approximate
Sun 01:31:00 PM 40.8207 139.4048 228° Southwest  Level FlightAware Approximate
Sun 01:32:00 PM 40.7352 139.2804 228° Southwest  Level FlightAware Approximate
Sun 01:33:00 PM 40.6496 139.1564 228° Southwest  Level FlightAware Approximate
Sun 01:34:00 PM 40.5639 139.0327 228° Southwest  Level FlightAware Approximate
Sun 01:35:00 PM 40.4780 138.9093 228° Southwest  Level FlightAware Approximate
Sun 01:36:00 PM 40.3920 138.7862 227° Southwest  Level FlightAware Approximate
Sun 01:37:00 PM 40.3045 138.6650 226° Southwest  Level FlightAware Approximate
Sun 01:38:00 PM 40.2164 138.5449 226° Southwest  Level FlightAware Approximate
Sun 01:39:00 PM 40.1297 138.4231 228° Southwest  Level FlightAware Approximate
Sun 01:40:00 PM 40.0440 138.3004 228° Southwest  Level FlightAware Approximate
Sun 01:41:00 PM 39.9581 138.1779 228° Southwest  Level FlightAware Approximate
Sun 01:42:00 PM 39.8720 138.0558 227° Southwest  Level FlightAware Approximate
Sun 01:43:00 PM 39.7859 137.9340 227° Southwest  Level FlightAware Approximate
Sun 01:44:00 PM 39.6996 137.8125 227° Southwest  Level FlightAware Approximate
Sun 01:45:00 PM 39.6132 137.6913 227° Southwest  Level FlightAware Approximate
Sun 01:46:00 PM 39.5266 137.5704 227° Southwest  Level FlightAware Approximate
Sun 01:47:00 PM 39.4399 137.4499 227° Southwest  Level FlightAware Approximate
Sun 01:48:00 PM 39.3531 137.3296 227° Southwest  Level FlightAware Approximate
Sun 01:49:00 PM 39.2662 137.2097 227° Southwest  Level FlightAware Approximate
Sun 01:50:00 PM 39.1791 137.0900 227° Southwest  Level FlightAware Approximate
Sun 01:51:00 PM 39.0919 136.9707 227° Southwest  Level FlightAware Approximate
Sun 01:52:00 PM 39.0046 136.8516 227° Southwest  Level FlightAware Approximate
Sun 01:53:00 PM 38.9169 136.7332 226° Southwest  Level FlightAware Approximate
Sun 01:54:00 PM 38.8288 136.6153 226° Southwest  Level FlightAware Approximate
Sun 01:55:00 PM 38.7406 136.4978 226° Southwest  Level FlightAware Approximate
Sun 01:56:00 PM 38.6523 136.3805 226° Southwest  Level FlightAware Approximate
Sun 01:57:00 PM 38.5639 136.2635 226° Southwest  Level FlightAware Approximate
Sun 01:58:00 PM 38.4754 136.1468 226° Southwest  Level FlightAware Approximate
Sun 01:59:00 PM 38.3867 136.0304 226° Southwest  Level FlightAware Approximate
Sun 02:00:00 PM 38.2980 135.9143 226° Southwest  Level FlightAware Approximate
Sun 02:01:00 PM 38.2091 135.7984 226° Southwest  Level FlightAware Approximate
Sun 02:02:00 PM 38.1201 135.6829 226° Southwest  Level FlightAware Approximate
Sun 02:03:00 PM 38.0310 135.5676 226° Southwest  Level FlightAware Approximate
Sun 02:04:00 PM 37.9418 135.4526 225° Southwest  Level FlightAware Approximate
Sun 02:05:00 PM 37.8525 135.3379 225° Southwest  Level FlightAware Approximate
Sun 02:06:00 PM 37.7630 135.2235 225° Southwest  Level FlightAware Approximate
Sun 02:07:00 PM 37.6735 135.1093 225° Southwest  Level FlightAware Approximate
Sun 02:08:00 PM 37.5838 134.9954 225° Southwest  Level FlightAware Approximate
Sun 02:09:00 PM 37.4940 134.8818 225° Southwest  Level FlightAware Approximate
Sun 02:10:00 PM 37.4041 134.7685 225° Southwest  Level FlightAware Approximate
Sun 02:11:00 PM 37.3142 134.6554 225° Southwest  Level FlightAware Approximate
Sun 02:12:00 PM 37.2241 134.5426 225° Southwest  Level FlightAware Approximate
Sun 02:13:00 PM 37.1337 134.4303 225° Southwest  Level FlightAware Approximate
Sun 02:14:00 PM 37.0432 134.3183 225° Southwest  Level FlightAware Approximate
Sun 02:15:00 PM 36.9526 134.2065 225° Southwest  Level FlightAware Approximate
Sun 02:16:00 PM 36.8619 134.0951 225° Southwest  Level FlightAware Approximate
Sun 02:17:00 PM 36.7711 133.9839 224° Southwest  Level FlightAware Approximate
Sun 02:18:00 PM 36.6802 133.8729 224° Southwest  Level FlightAware Approximate
Sun 02:19:00 PM 36.5891 133.7622 224° Southwest  Level FlightAware Approximate
Sun 02:20:00 PM 36.4980 133.6518 224° Southwest  Level FlightAware Approximate
Sun 02:21:00 PM 36.4068 133.5416 224° Southwest  Level FlightAware Approximate
Sun 02:22:00 PM 36.3155 133.4317 224° Southwest  Level FlightAware Approximate
Sun 02:23:00 PM 36.2241 133.3221 224° Southwest  Level FlightAware Approximate
Sun 02:24:00 PM 36.1325 133.2127 224° Southwest  Level FlightAware Approximate
Sun 02:25:00 PM 36.0409 133.1035 224° Southwest  Level FlightAware Approximate
Sun 02:26:00 PM 35.9492 132.9946 224° Southwest  Level FlightAware Approximate
Sun 02:27:00 PM 35.8574 132.8860 224° Southwest  Level FlightAware Approximate
Sun 02:28:00 PM 35.7655 132.7776 224° Southwest  Level FlightAware Approximate
Sun 02:29:00 PM 35.6734 132.6695 224° Southwest  Level FlightAware Approximate
Sun 02:30:00 PM 35.5813 132.5616 224° Southwest  Level FlightAware Approximate
Sun 02:31:00 PM 35.4895 132.4535 226° Southwest  Level FlightAware Approximate
Sun 02:32:00 PM 35.4004 132.3421 226° Southwest  Level FlightAware Approximate
Sun 02:33:00 PM 35.3094 132.2332 224° Southwest  Level FlightAware Approximate
Sun 02:34:00 PM 35.2172 132.1259 224° Southwest  Level FlightAware Approximate
Sun 02:35:00 PM 35.1250 132.0188 224° Southwest  Level FlightAware Approximate
Sun 02:36:00 PM 35.0326 131.9120 223° Southwest  Level FlightAware Approximate
Sun 02:37:00 PM 34.9401 131.8054 223° Southwest  Level FlightAware Approximate
Sun 02:38:00 PM 34.8476 131.6991 223° Southwest  Level FlightAware Approximate
Sun 02:39:00 PM 34.7549 131.5930 223° Southwest  Level FlightAware Approximate
Sun 02:40:00 PM 34.6622 131.4871 223° Southwest  Level FlightAware Approximate
Sun 02:41:00 PM 34.5694 131.3815 223° Southwest  Level FlightAware Approximate
Sun 02:42:00 PM 34.4765 131.2761 223° Southwest  Level FlightAware Approximate
Sun 02:43:00 PM 34.3834 131.1709 223° Southwest  Level FlightAware Approximate
Sun 02:44:00 PM 34.2903 131.0660 223° Southwest  Level FlightAware Approximate
Sun 02:45:00 PM 34.1972 130.9613 223° Southwest  Level FlightAware Approximate
Sun 02:46:00 PM 34.1039 130.8568 223° Southwest  Level FlightAware Approximate
Sun 02:47:00 PM 34.0105 130.7526 223° Southwest  Level FlightAware Approximate
Sun 02:48:00 PM 33.9168 130.6490 222° Southwest  Level FlightAware Approximate
Sun 02:49:00 PM 33.8215 130.5475 222° Southwest  Level FlightAware Approximate
Sun 02:50:00 PM 33.7261 130.4463 221° Southwest  Level FlightAware Approximate
Sun 02:51:00 PM 33.6380 130.3372 233° Southwest  Level FlightAware Approximate
Sun 02:52:00 PM 33.5619 130.2149 233° Southwest  Level FlightAware Approximate
Sun 02:53:00 PM 33.4856 130.0928 233° Southwest  Level FlightAware Approximate
Sun 02:54:00 PM 33.4092 129.9709 233° Southwest  Level FlightAware Approximate
Sun 02:55:00 PM 33.3327 129.8493 233° Southwest  Level FlightAware Approximate
Sun 02:56:00 PM 33.2561 129.7278 233° Southwest  Level FlightAware Approximate
Sun 02:57:00 PM 33.1794 129.6066 233° Southwest  Level FlightAware Approximate
Sun 02:58:00 PM 33.1025 129.4856 233° Southwest  Level FlightAware Approximate
Sun 02:59:00 PM 33.0256 129.3648 233° Southwest  Level FlightAware Approximate
Sun 03:00:00 PM 32.9485 129.2442 233° Southwest  Level FlightAware Approximate
Sun 03:01:00 PM 32.8713 129.1238 233° Southwest  Level FlightAware Approximate
Sun 03:02:00 PM 32.7826 129.0154 235° Southwest  Level FlightAware Approximate
Sun 03:03:00 PM 32.7102 128.8911 235° Southwest  Level FlightAware Approximate
Sun 03:04:00 PM 32.6540 128.7581 256° West  Level FlightAware Approximate
Sun 03:05:00 PM 32.6222 128.6119 256° West  Level FlightAware Approximate
Sun 03:06:00 PM 32.5902 128.4658 255° West  Level FlightAware Approximate
Sun 03:07:00 PM 32.5581 128.3198 255° West  Level FlightAware Approximate
Sun 03:08:00 PM 32.5258 128.1739 255° West  Level FlightAware Approximate
Sun 03:09:00 PM 32.4933 128.0280 255° West  Level FlightAware Approximate
Sun 03:10:00 PM 32.4607 127.8823 255° West  Level FlightAware Approximate
Sun 03:11:00 PM 32.4279 127.7367 255° West  Level FlightAware Approximate
Sun 03:12:00 PM 32.3949 127.5913 255° West  Level FlightAware Approximate
Sun 03:13:00 PM 32.3618 127.4459 255° West  Level FlightAware Approximate
Sun 03:14:00 PM 32.3284 127.3006 255° West  Level FlightAware Approximate
Sun 03:15:00 PM 32.2950 127.1554 255° West  Level FlightAware Approximate
Sun 03:16:00 PM 32.2617 127.0102 256° West  Level FlightAware Approximate
Sun 03:17:00 PM 32.2301 126.8646 256° West  Level FlightAware Approximate
Sun 03:18:00 PM 32.1984 126.7190 256° West  Level FlightAware Approximate
Sun 03:19:00 PM 32.1665 126.5735 255° West  Level FlightAware Approximate
Sun 03:20:00 PM 32.1344 126.4282 255° West  Level FlightAware Approximate
Sun 03:21:00 PM 32.1021 126.2830 255° West  Level FlightAware Approximate
Sun 03:22:00 PM 32.0697 126.1378 255° West  Level FlightAware Approximate
Sun 03:23:00 PM 32.0377 125.9926 256° West  Level FlightAware Approximate
Sun 03:24:00 PM 32.0064 125.8472 256° West  Level FlightAware Approximate
Sun 03:25:00 PM 31.9750 125.7019 256° West  Level FlightAware Approximate
Sun 03:26:00 PM 31.9433 125.5567 256° West  Level FlightAware Approximate
Sun 03:27:00 PM 31.9116 125.4116 256° West  Level FlightAware Approximate
Sun 03:28:00 PM 31.8796 125.2666 255° West  Level FlightAware Approximate
Sun 03:29:00 PM 31.8475 125.1217 255° West  Level FlightAware Approximate
Sun 03:30:00 PM 31.8154 124.9769 257° West  Level FlightAware Approximate
Sun 03:31:00 PM 31.7858 124.8314 257° West  Level FlightAware Approximate
Sun 03:32:00 PM 31.7561 124.6859 257° West  Level FlightAware Approximate
Sun 03:33:00 PM 31.7262 124.5406 256° West  Level FlightAware Approximate
Sun 03:34:00 PM 31.6962 124.3953 256° West  Level FlightAware Approximate
Sun 03:35:00 PM 31.6601 124.2521 251° West  Level FlightAware Approximate
Sun 03:36:00 PM 31.6317 124.1068 259° West  Level FlightAware Approximate
Sun 03:37:00 PM 31.5969 123.9648 259° West  Level FlightAware Approximate
Sun 03:38:00 PM 31.5675 123.8197 254° West  Level FlightAware Approximate
Sun 03:39:00 PM 31.5316 123.6765 254° West  Level FlightAware Approximate
Sun 03:40:00 PM 31.5044 123.5311 261° West  Level FlightAware Approximate
Sun 03:41:00 PM 31.4718 123.3871 254° West  Level FlightAware Approximate
Sun 03:42:00 PM 31.4427 123.2420 257° West  Level FlightAware Approximate
Sun 03:43:00 PM 31.4146 123.0967 257° West  Level FlightAware Approximate
Sun 03:44:00 PM 31.3862 122.9514 257° West  Level FlightAware Approximate
Sun 03:45:00 PM 31.3578 122.8062 257° West  Level FlightAware Approximate
Sun 03:46:00 PM 31.3347 122.6599 261° West  Level FlightAware Approximate
Sun 03:47:00 PM 31.3087 122.5142 258° West  Level FlightAware Approximate
Sun 03:48:00 PM 31.2805 122.3690 257° West  Level FlightAware Approximate
Sun 03:49:00 PM 31.2515 122.2242 257° West  Level FlightAware Approximate
Sun 03:50:00 PM 31.2249 122.0787 258° West  Level FlightAware Approximate
Sun 03:51:00 PM 31.1996 121.9333 180° South  Level FlightAware Approximate
Sun 03:52:00 PM 31.1667 121.8056 270° West  Level FlightAware Approximate
Sun 03:53:00 PM 31.1428 121.7924 157° South  Level Estimated
Sun 03:54:00 PM 31.1428 121.7924 157° South  Level Estimated
Sun 03:55:00 PM 31.1428 121.7924 157° South  Level Estimated
Sun 03:56:00 PM 31.1428 121.7924 157° South  Level Estimated
Sun 03:57:00 PM 31.1428 121.7924 157° South  Level Estimated
Sun 03:58:00 PM 31.1428 121.7924 157° South  Level Estimated
Sun 03:59:00 PM 31.1428 121.7924 157° South  Level Estimated
Sun 04:00:00 PM 31.1428 121.7924 157° South  Level Estimated
Sun 04:01:00 PM 31.1428 121.7924 157° South  Level Estimated
Sun 04:02:00 PM 31.1428 121.7924 157° South  Level Estimated
Sun 04:03:00 PM 31.1428 121.7924 157° South  Level Estimated
Sun 04:04:00 PM 31.1428 121.7924 157° South  Level Estimated
Sun 04:05:00 PM 31.1428 121.7924 157° South  Level Estimated
Sun 04:06:00 PM 31.1428 121.7924 157° South  Level Estimated
Sun 04:07:00 PM 31.1428 121.7924 157° South  Level Estimated

Login

Don't have an account? Register now (free) for customized features, flight alerts, and more!